sensor_id;sensor_type;location;lat;lon;timestamp;P1;durP1;ratioP1;P2;durP2;ratioP2
52730;SDS011;38624;53.242;6.974;2023-06-14T08:39:06;9.77;;;4.63;;
52730;SDS011;38624;53.242;6.974;2023-06-14T08:41:34;3.80;;;2.45;;
52730;SDS011;38624;53.242;6.974;2023-06-14T08:44:00;4.88;;;2.60;;
52730;SDS011;38624;53.242;6.974;2023-06-14T08:46:26;6.63;;;2.70;;
52730;SDS011;38624;53.242;6.974;2023-06-14T08:48:53;4.38;;;2.40;;
52730;SDS011;38624;53.242;6.974;2023-06-14T08:51:22;5.47;;;2.75;;
52730;SDS011;38624;53.242;6.974;2023-06-14T08:53:53;8.73;;;2.53;;
52730;SDS011;38624;53.242;6.974;2023-06-14T08:56:26;6.13;;;2.63;;
52730;SDS011;38624;53.242;6.974;2023-06-14T08:58:54;8.65;;;2.42;;
52730;SDS011;38624;53.242;6.974;2023-06-14T09:01:21;7.32;;;2.78;;
52730;SDS011;38624;53.242;6.974;2023-06-14T09:03:48;5.55;;;2.20;;
52730;SDS011;38624;53.242;6.974;2023-06-14T09:06:15;7.85;;;2.65;;
52730;SDS011;38624;53.242;6.974;2023-06-14T09:08:43;4.15;;;2.47;;
52730;SDS011;38624;53.242;6.974;2023-06-14T09:11:11;5.22;;;2.67;;
52730;SDS011;38624;53.242;6.974;2023-06-14T09:13:38;6.13;;;2.80;;
52730;SDS011;38624;53.242;6.974;2023-06-14T09:16:04;7.30;;;2.72;;
52730;SDS011;38624;53.242;6.974;2023-06-14T09:18:37;4.53;;;2.60;;
52730;SDS011;38624;53.242;6.974;2023-06-14T09:21:06;5.03;;;2.28;;
52730;SDS011;38624;53.242;6.974;2023-06-14T09:23:36;9.45;;;2.63;;
52730;SDS011;38624;53.242;6.974;2023-06-14T09:26:21;6.95;;;2.60;;
52730;SDS011;38624;53.242;6.974;2023-06-14T09:28:48;5.88;;;2.35;;
52730;SDS011;38624;53.242;6.974;2023-06-14T09:31:19;6.97;;;2.75;;
52730;SDS011;38624;53.242;6.974;2023-06-14T09:33:45;5.00;;;2.45;;
52730;SDS011;38624;53.242;6.974;2023-06-14T09:36:22;4.00;;;2.30;;
52730;SDS011;38624;53.242;6.974;2023-06-14T09:41:42;7.53;;;2.40;;
52730;SDS011;38624;53.242;6.974;2023-06-14T09:46:35;4.93;;;2.30;;
52730;SDS011;38624;53.242;6.974;2023-06-14T09:49:02;2.90;;;2.20;;
52730;SDS011;38624;53.242;6.974;2023-06-14T09:51:29;6.57;;;2.45;;
52730;SDS011;38624;53.242;6.974;2023-06-14T09:53:59;4.00;;;2.72;;
52730;SDS011;38624;53.242;6.974;2023-06-14T09:56:27;4.68;;;2.20;;
52730;SDS011;38624;53.242;6.974;2023-06-14T09:58:57;6.80;;;2.40;;
52730;SDS011;38624;53.242;6.974;2023-06-14T10:01:24;5.93;;;2.50;;
52730;SDS011;38624;53.242;6.974;2023-06-14T10:03:57;4.07;;;2.35;;
52730;SDS011;38624;53.242;6.974;2023-06-14T10:06:29;5.85;;;2.38;;
52730;SDS011;38624;53.242;6.974;2023-06-14T10:08:59;5.38;;;2.30;;
52730;SDS011;38624;53.242;6.974;2023-06-14T10:11:28;4.25;;;2.20;;
52730;SDS011;38624;53.242;6.974;2023-06-14T10:13:57;5.13;;;2.25;;
52730;SDS011;38624;53.242;6.974;2023-06-14T10:16:29;4.78;;;2.30;;
52730;SDS011;38624;53.242;6.974;2023-06-14T10:19:25;5.00;;;2.03;;
52730;SDS011;38624;53.242;6.974;2023-06-14T10:22:01;6.22;;;2.33;;
52730;SDS011;38624;53.242;6.974;2023-06-14T10:24:48;8.93;;;2.70;;
52730;SDS011;38624;53.242;6.974;2023-06-14T10:27:15;3.53;;;2.00;;
52730;SDS011;38624;53.242;6.974;2023-06-14T10:32:18;5.28;;;2.22;;
52730;SDS011;38624;53.242;6.974;2023-06-14T10:34:53;5.50;;;2.10;;
52730;SDS011;38624;53.242;6.974;2023-06-14T10:37:21;4.82;;;2.25;;
52730;SDS011;38624;53.242;6.974;2023-06-14T10:39:47;3.97;;;1.80;;
52730;SDS011;38624;53.242;6.974;2023-06-14T10:42:13;5.33;;;2.00;;
52730;SDS011;38624;53.242;6.974;2023-06-14T10:47:10;4.43;;;1.90;;
52730;SDS011;38624;53.242;6.974;2023-06-14T10:49:49;4.32;;;1.83;;
52730;SDS011;38624;53.242;6.974;2023-06-14T10:52:17;3.45;;;1.77;;
52730;SDS011;38624;53.242;6.974;2023-06-14T10:54:56;3.40;;;1.60;;
52730;SDS011;38624;53.242;6.974;2023-06-14T10:57:40;2.45;;;1.30;;
52730;SDS011;38624;53.242;6.974;2023-06-14T11:00:07;4.82;;;1.70;;
52730;SDS011;38624;53.242;6.974;2023-06-14T11:05:49;1.77;;;1.45;;
52730;SDS011;38624;53.242;6.974;2023-06-14T11:08:33;4.22;;;1.63;;
52730;SDS011;38624;53.242;6.974;2023-06-14T11:11:07;2.38;;;1.45;;
52730;SDS011;38624;53.242;6.974;2023-06-14T11:13:34;6.88;;;1.58;;
52730;SDS011;38624;53.242;6.974;2023-06-14T11:16:03;4.85;;;1.75;;
52730;SDS011;38624;53.242;6.974;2023-06-14T11:18:38;3.95;;;1.77;;
52730;SDS011;38624;53.242;6.974;2023-06-14T11:21:04;2.85;;;1.67;;
52730;SDS011;38624;53.242;6.974;2023-06-14T11:23:30;2.13;;;1.73;;
52730;SDS011;38624;53.242;6.974;2023-06-14T11:25:56;5.10;;;1.90;;
52730;SDS011;38624;53.242;6.974;2023-06-14T11:28:22;4.00;;;1.70;;
52730;SDS011;38624;53.242;6.974;2023-06-14T11:33:24;3.30;;;1.48;;
52730;SDS011;38624;53.242;6.974;2023-06-14T11:35:50;2.30;;;1.47;;
52730;SDS011;38624;53.242;6.974;2023-06-14T11:38:17;3.70;;;1.52;;
52730;SDS011;38624;53.242;6.974;2023-06-14T11:40:43;2.60;;;1.70;;
52730;SDS011;38624;53.242;6.974;2023-06-14T11:43:08;2.67;;;1.53;;
52730;SDS011;38624;53.242;6.974;2023-06-14T11:45:35;3.95;;;1.60;;
52730;SDS011;38624;53.242;6.974;2023-06-14T11:48:00;3.47;;;1.70;;
52730;SDS011;38624;53.242;6.974;2023-06-14T11:50:26;4.40;;;1.60;;
52730;SDS011;38624;53.242;6.974;2023-06-14T11:55:20;5.17;;;1.70;;
52730;SDS011;38624;53.242;6.974;2023-06-14T11:57:46;4.75;;;1.80;;
52730;SDS011;38624;53.242;6.974;2023-06-14T12:00:12;2.63;;;1.55;;
52730;SDS011;38624;53.242;6.974;2023-06-14T12:02:40;8.93;;;1.67;;
52730;SDS011;38624;53.242;6.974;2023-06-14T12:05:06;2.30;;;1.60;;
52730;SDS011;38624;53.242;6.974;2023-06-14T12:07:36;3.85;;;1.58;;
52730;SDS011;38624;53.242;6.974;2023-06-14T12:12:34;2.38;;;1.80;;
52730;SDS011;38624;53.242;6.974;2023-06-14T12:15:02;4.38;;;1.67;;
52730;SDS011;38624;53.242;6.974;2023-06-14T12:17:33;4.13;;;1.92;;
52730;SDS011;38624;53.242;6.974;2023-06-14T12:20:11;3.08;;;1.88;;
52730;SDS011;38624;53.242;6.974;2023-06-14T12:22:50;2.17;;;1.77;;
52730;SDS011;38624;53.242;6.974;2023-06-14T12:27:56;1.95;;;1.38;;
52730;SDS011;38624;53.242;6.974;2023-06-14T12:30:29;5.97;;;1.60;;
52730;SDS011;38624;53.242;6.974;2023-06-14T12:32:54;5.20;;;1.90;;
52730;SDS011;38624;53.242;6.974;2023-06-14T12:35:20;2.50;;;1.63;;
52730;SDS011;38624;53.242;6.974;2023-06-14T12:37:46;3.58;;;1.60;;
52730;SDS011;38624;53.242;6.974;2023-06-14T12:40:12;3.38;;;1.70;;
52730;SDS011;38624;53.242;6.974;2023-06-14T12:42:39;3.03;;;1.90;;
52730;SDS011;38624;53.242;6.974;2023-06-14T12:47:31;2.92;;;1.80;;
52730;SDS011;38624;53.242;6.974;2023-06-14T12:49:56;2.03;;;1.67;;
52730;SDS011;38624;53.242;6.974;2023-06-14T12:52:22;4.50;;;1.90;;
52730;SDS011;38624;53.242;6.974;2023-06-14T12:54:48;3.00;;;1.90;;
52730;SDS011;38624;53.242;6.974;2023-06-14T12:57:14;3.65;;;1.70;;
52730;SDS011;38624;53.242;6.974;2023-06-14T12:59:40;5.63;;;1.73;;
52730;SDS011;38624;53.242;6.974;2023-06-14T13:02:12;3.70;;;1.80;;
52730;SDS011;38624;53.242;6.974;2023-06-14T13:04:40;3.17;;;1.65;;
52730;SDS011;38624;53.242;6.974;2023-06-14T13:07:05;4.03;;;1.60;;
52730;SDS011;38624;53.242;6.974;2023-06-14T13:09:31;12.57;;;1.93;;
52730;SDS011;38624;53.242;6.974;2023-06-14T13:11:57;5.50;;;2.00;;
52730;SDS011;38624;53.242;6.974;2023-06-14T13:14:23;4.97;;;1.90;;
52730;SDS011;38624;53.242;6.974;2023-06-14T13:16:48;4.00;;;1.70;;
52730;SDS011;38624;53.242;6.974;2023-06-14T13:19:14;4.72;;;1.73;;
52730;SDS011;38624;53.242;6.974;2023-06-14T13:21:40;3.42;;;1.75;;
52730;SDS011;38624;53.242;6.974;2023-06-14T13:24:05;4.17;;;1.67;;
52730;SDS011;38624;53.242;6.974;2023-06-14T13:26:32;4.57;;;1.70;;
52730;SDS011;38624;53.242;6.974;2023-06-14T13:31:23;4.63;;;1.90;;
52730;SDS011;38624;53.242;6.974;2023-06-14T13:33:49;3.90;;;1.80;;
52730;SDS011;38624;53.242;6.974;2023-06-14T13:36:15;4.60;;;2.00;;
52730;SDS011;38624;53.242;6.974;2023-06-14T13:38:41;4.72;;;1.95;;
52730;SDS011;38624;53.242;6.974;2023-06-14T13:41:06;10.60;;;1.93;;
52730;SDS011;38624;53.242;6.974;2023-06-14T13:43:32;6.37;;;1.80;;
52730;SDS011;38624;53.242;6.974;2023-06-14T13:45:58;5.17;;;1.90;;
52730;SDS011;38624;53.242;6.974;2023-06-14T13:48:23;6.03;;;2.10;;
52730;SDS011;38624;53.242;6.974;2023-06-14T13:50:49;5.03;;;2.35;;
52730;SDS011;38624;53.242;6.974;2023-06-14T13:53:15;4.67;;;1.97;;
52730;SDS011;38624;53.242;6.974;2023-06-14T13:55:41;5.87;;;1.77;;
52730;SDS011;38624;53.242;6.974;2023-06-14T13:58:06;5.03;;;1.87;;
52730;SDS011;38624;53.242;6.974;2023-06-14T14:00:32;5.10;;;1.80;;
52730;SDS011;38624;53.242;6.974;2023-06-14T14:02:58;4.22;;;2.03;;
52730;SDS011;38624;53.242;6.974;2023-06-14T14:05:25;5.57;;;2.30;;
52730;SDS011;38624;53.242;6.974;2023-06-14T14:07:55;4.80;;;1.83;;
52730;SDS011;38624;53.242;6.974;2023-06-14T14:10:22;3.50;;;2.00;;
52730;SDS011;38624;53.242;6.974;2023-06-14T14:12:50;3.88;;;2.00;;
52730;SDS011;38624;53.242;6.974;2023-06-14T14:15:16;5.13;;;2.05;;
52730;SDS011;38624;53.242;6.974;2023-06-14T14:17:42;4.53;;;1.90;;
52730;SDS011;38624;53.242;6.974;2023-06-14T14:20:08;5.63;;;2.08;;
52730;SDS011;38624;53.242;6.974;2023-06-14T14:22:34;5.97;;;2.13;;
52730;SDS011;38624;53.242;6.974;2023-06-14T14:25:00;3.75;;;2.22;;
52730;SDS011;38624;53.242;6.974;2023-06-14T14:27:26;5.20;;;2.10;;
52730;SDS011;38624;53.242;6.974;2023-06-14T14:29:52;4.22;;;1.80;;
52730;SDS011;38624;53.242;6.974;2023-06-14T14:32:17;3.37;;;2.00;;
52730;SDS011;38624;53.242;6.974;2023-06-14T14:34:43;3.77;;;2.00;;
52730;SDS011;38624;53.242;6.974;2023-06-14T14:37:09;4.57;;;2.13;;
52730;SDS011;38624;53.242;6.974;2023-06-14T14:39:36;3.80;;;2.17;;
52730;SDS011;38624;53.242;6.974;2023-06-14T14:42:02;5.07;;;2.20;;
52730;SDS011;38624;53.242;6.974;2023-06-14T14:44:27;4.40;;;1.83;;
52730;SDS011;38624;53.242;6.974;2023-06-14T14:46:53;6.80;;;2.03;;
52730;SDS011;38624;53.242;6.974;2023-06-14T14:49:19;4.57;;;2.00;;
52730;SDS011;38624;53.242;6.974;2023-06-14T14:51:45;3.83;;;2.08;;
52730;SDS011;38624;53.242;6.974;2023-06-14T14:54:11;6.73;;;2.33;;
52730;SDS011;38624;53.242;6.974;2023-06-14T14:56:36;3.55;;;2.33;;
52730;SDS011;38624;53.242;6.974;2023-06-14T15:01:29;7.45;;;2.40;;
52730;SDS011;38624;53.242;6.974;2023-06-14T15:03:54;6.83;;;2.30;;
52730;SDS011;38624;53.242;6.974;2023-06-14T15:06:20;4.33;;;2.00;;
52730;SDS011;38624;53.242;6.974;2023-06-14T15:08:46;5.03;;;2.13;;
52730;SDS011;38624;53.242;6.974;2023-06-14T15:11:11;3.93;;;2.20;;
52730;SDS011;38624;53.242;6.974;2023-06-14T15:13:37;3.90;;;2.00;;
52730;SDS011;38624;53.242;6.974;2023-06-14T15:16:03;4.20;;;2.00;;
52730;SDS011;38624;53.242;6.974;2023-06-14T15:18:28;6.28;;;1.90;;
52730;SDS011;38624;53.242;6.974;2023-06-14T15:20:55;5.25;;;2.00;;
52730;SDS011;38624;53.242;6.974;2023-06-14T15:23:20;3.47;;;2.17;;
52730;SDS011;38624;53.242;6.974;2023-06-14T15:28:13;6.03;;;2.53;;
52730;SDS011;38624;53.242;6.974;2023-06-14T15:30:38;7.05;;;2.50;;
52730;SDS011;38624;53.242;6.974;2023-06-14T15:33:04;4.18;;;2.40;;
52730;SDS011;38624;53.242;6.974;2023-06-14T15:35:30;9.02;;;2.20;;
52730;SDS011;38624;53.242;6.974;2023-06-14T15:37:56;5.75;;;2.30;;
52730;SDS011;38624;53.242;6.974;2023-06-14T15:40:21;3.37;;;1.83;;
52730;SDS011;38624;53.242;6.974;2023-06-14T15:42:47;4.55;;;2.30;;
52730;SDS011;38624;53.242;6.974;2023-06-14T15:45:13;4.33;;;2.10;;
52730;SDS011;38624;53.242;6.974;2023-06-14T15:47:38;5.80;;;2.10;;
52730;SDS011;38624;53.242;6.974;2023-06-14T15:50:05;5.38;;;2.42;;
52730;SDS011;38624;53.242;6.974;2023-06-14T15:52:33;7.00;;;2.35;;
52730;SDS011;38624;53.242;6.974;2023-06-14T15:54:59;5.35;;;2.15;;
52730;SDS011;38624;53.242;6.974;2023-06-14T15:57:25;5.50;;;2.33;;
52730;SDS011;38624;53.242;6.974;2023-06-14T15:59:51;7.70;;;2.42;;
52730;SDS011;38624;53.242;6.974;2023-06-14T16:02:17;7.30;;;2.28;;
52730;SDS011;38624;53.242;6.974;2023-06-14T16:04:42;4.25;;;2.30;;
52730;SDS011;38624;53.242;6.974;2023-06-14T16:07:08;4.05;;;2.25;;
52730;SDS011;38624;53.242;6.974;2023-06-14T16:09:34;3.60;;;2.20;;
52730;SDS011;38624;53.242;6.974;2023-06-14T16:11:59;5.45;;;2.33;;
52730;SDS011;38624;53.242;6.974;2023-06-14T16:14:26;4.85;;;2.22;;
52730;SDS011;38624;53.242;6.974;2023-06-14T16:16:52;5.90;;;2.22;;
52730;SDS011;38624;53.242;6.974;2023-06-14T16:19:18;4.93;;;2.22;;
52730;SDS011;38624;53.242;6.974;2023-06-14T16:21:44;2.75;;;2.00;;
52730;SDS011;38624;53.242;6.974;2023-06-14T16:24:09;5.57;;;2.58;;
52730;SDS011;38624;53.242;6.974;2023-06-14T16:26:35;5.72;;;2.15;;
52730;SDS011;38624;53.242;6.974;2023-06-14T16:29:01;5.60;;;2.45;;
52730;SDS011;38624;53.242;6.974;2023-06-14T16:31:27;4.72;;;2.22;;
52730;SDS011;38624;53.242;6.974;2023-06-14T16:33:53;6.47;;;2.40;;
52730;SDS011;38624;53.242;6.974;2023-06-14T16:36:22;5.10;;;2.38;;
52730;SDS011;38624;53.242;6.974;2023-06-14T16:38:48;7.00;;;2.15;;
52730;SDS011;38624;53.242;6.974;2023-06-14T16:41:14;3.78;;;2.25;;
52730;SDS011;38624;53.242;6.974;2023-06-14T16:43:41;6.00;;;2.40;;
52730;SDS011;38624;53.242;6.974;2023-06-14T16:46:06;4.90;;;2.67;;
52730;SDS011;38624;53.242;6.974;2023-06-14T16:48:32;5.80;;;2.40;;
52730;SDS011;38624;53.242;6.974;2023-06-14T16:50:59;4.30;;;2.47;;
52730;SDS011;38624;53.242;6.974;2023-06-14T16:53:25;6.25;;;2.50;;
52730;SDS011;38624;53.242;6.974;2023-06-14T16:55:52;4.72;;;2.58;;
52730;SDS011;38624;53.242;6.974;2023-06-14T16:58:18;5.05;;;2.53;;
52730;SDS011;38624;53.242;6.974;2023-06-14T17:00:43;4.35;;;2.20;;
52730;SDS011;38624;53.242;6.974;2023-06-14T17:03:09;5.00;;;2.17;;
52730;SDS011;38624;53.242;6.974;2023-06-14T17:05:35;5.18;;;2.38;;
52730;SDS011;38624;53.242;6.974;2023-06-14T17:08:01;4.22;;;2.00;;
52730;SDS011;38624;53.242;6.974;2023-06-14T17:10:27;3.95;;;2.50;;
52730;SDS011;38624;53.242;6.974;2023-06-14T17:12:53;8.82;;;2.60;;
52730;SDS011;38624;53.242;6.974;2023-06-14T17:15:18;4.65;;;2.30;;
52730;SDS011;38624;53.242;6.974;2023-06-14T17:17:44;3.83;;;2.30;;
52730;SDS011;38624;53.242;6.974;2023-06-14T17:20:10;7.45;;;2.35;;
52730;SDS011;38624;53.242;6.974;2023-06-14T17:22:36;5.72;;;2.20;;
52730;SDS011;38624;53.242;6.974;2023-06-14T17:27:28;9.18;;;2.13;;
52730;SDS011;38624;53.242;6.974;2023-06-14T17:29:54;5.10;;;2.40;;
52730;SDS011;38624;53.242;6.974;2023-06-14T17:32:19;3.60;;;2.22;;
52730;SDS011;38624;53.242;6.974;2023-06-14T17:34:45;7.03;;;2.50;;
52730;SDS011;38624;53.242;6.974;2023-06-14T17:37:11;8.27;;;2.60;;
52730;SDS011;38624;53.242;6.974;2023-06-14T17:39:39;5.75;;;2.40;;
52730;SDS011;38624;53.242;6.974;2023-06-14T17:42:06;4.82;;;2.38;;
52730;SDS011;38624;53.242;6.974;2023-06-14T17:44:32;5.10;;;2.40;;
52730;SDS011;38624;53.242;6.974;2023-06-14T17:46:58;5.55;;;2.40;;
52730;SDS011;38624;53.242;6.974;2023-06-14T17:49:23;6.60;;;2.50;;
52730;SDS011;38624;53.242;6.974;2023-06-14T17:51:51;5.57;;;2.47;;
52730;SDS011;38624;53.242;6.974;2023-06-14T17:54:17;5.45;;;2.55;;
52730;SDS011;38624;53.242;6.974;2023-06-14T17:56:43;8.98;;;2.92;;
52730;SDS011;38624;53.242;6.974;2023-06-14T17:59:09;8.95;;;2.72;;
52730;SDS011;38624;53.242;6.974;2023-06-14T18:01:35;5.72;;;2.58;;
52730;SDS011;38624;53.242;6.974;2023-06-14T18:04:01;10.23;;;2.30;;
52730;SDS011;38624;53.242;6.974;2023-06-14T18:06:27;6.07;;;2.30;;
52730;SDS011;38624;53.242;6.974;2023-06-14T18:08:52;4.97;;;2.10;;
52730;SDS011;38624;53.242;6.974;2023-06-14T18:11:18;6.33;;;2.60;;
52730;SDS011;38624;53.242;6.974;2023-06-14T18:13:44;5.70;;;2.67;;
52730;SDS011;38624;53.242;6.974;2023-06-14T18:16:10;5.38;;;2.40;;
52730;SDS011;38624;53.242;6.974;2023-06-14T18:18:39;5.22;;;2.60;;
52730;SDS011;38624;53.242;6.974;2023-06-14T18:21:06;7.30;;;2.65;;
52730;SDS011;38624;53.242;6.974;2023-06-14T18:23:32;5.03;;;2.55;;
52730;SDS011;38624;53.242;6.974;2023-06-14T18:25:58;4.43;;;2.40;;
52730;SDS011;38624;53.242;6.974;2023-06-14T18:28:24;4.40;;;2.30;;
52730;SDS011;38624;53.242;6.974;2023-06-14T18:30:49;5.88;;;2.40;;
52730;SDS011;38624;53.242;6.974;2023-06-14T18:33:15;4.72;;;2.30;;
52730;SDS011;38624;53.242;6.974;2023-06-14T18:35:41;4.13;;;2.10;;
52730;SDS011;38624;53.242;6.974;2023-06-14T18:38:06;6.70;;;2.47;;
52730;SDS011;38624;53.242;6.974;2023-06-14T18:40:32;4.53;;;2.03;;
52730;SDS011;38624;53.242;6.974;2023-06-14T18:42:58;4.30;;;1.95;;
52730;SDS011;38624;53.242;6.974;2023-06-14T18:45:24;7.47;;;2.30;;
52730;SDS011;38624;53.242;6.974;2023-06-14T18:47:50;4.50;;;2.10;;
52730;SDS011;38624;53.242;6.974;2023-06-14T18:50:16;6.50;;;2.40;;
52730;SDS011;38624;53.242;6.974;2023-06-14T18:55:09;6.57;;;2.63;;
52730;SDS011;38624;53.242;6.974;2023-06-14T18:57:35;2.87;;;1.87;;
52730;SDS011;38624;53.242;6.974;2023-06-14T19:00:01;6.77;;;2.37;;
52730;SDS011;38624;53.242;6.974;2023-06-14T19:02:30;5.70;;;2.08;;
52730;SDS011;38624;53.242;6.974;2023-06-14T19:04:56;5.10;;;2.30;;
52730;SDS011;38624;53.242;6.974;2023-06-14T19:07:21;4.47;;;2.27;;
52730;SDS011;38624;53.242;6.974;2023-06-14T19:09:47;4.80;;;2.30;;
52730;SDS011;38624;53.242;6.974;2023-06-14T19:12:13;4.83;;;2.00;;
52730;SDS011;38624;53.242;6.974;2023-06-14T19:14:39;8.27;;;2.47;;
52730;SDS011;38624;53.242;6.974;2023-06-14T19:17:04;6.22;;;2.03;;
52730;SDS011;38624;53.242;6.974;2023-06-14T19:19:32;6.20;;;2.55;;
52730;SDS011;38624;53.242;6.974;2023-06-14T19:21:58;8.93;;;2.25;;
52730;SDS011;38624;53.242;6.974;2023-06-14T19:24:24;4.13;;;2.20;;
52730;SDS011;38624;53.242;6.974;2023-06-14T19:26:49;6.47;;;2.42;;
52730;SDS011;38624;53.242;6.974;2023-06-14T19:29:15;8.03;;;2.20;;
52730;SDS011;38624;53.242;6.974;2023-06-14T19:31:41;4.27;;;2.00;;
52730;SDS011;38624;53.242;6.974;2023-06-14T19:34:07;6.87;;;2.70;;
52730;SDS011;38624;53.242;6.974;2023-06-14T19:36:32;3.13;;;2.10;;
52730;SDS011;38624;53.242;6.974;2023-06-14T19:38:58;3.43;;;2.33;;
52730;SDS011;38624;53.242;6.974;2023-06-14T19:41:24;6.87;;;2.40;;
52730;SDS011;38624;53.242;6.974;2023-06-14T19:43:53;6.68;;;2.42;;
52730;SDS011;38624;53.242;6.974;2023-06-14T19:46:19;8.40;;;2.40;;
52730;SDS011;38624;53.242;6.974;2023-06-14T19:48:46;6.47;;;2.70;;
52730;SDS011;38624;53.242;6.974;2023-06-14T19:51:11;6.43;;;2.40;;
52730;SDS011;38624;53.242;6.974;2023-06-14T19:53:37;4.60;;;2.40;;
52730;SDS011;38624;53.242;6.974;2023-06-14T19:56:03;6.80;;;2.80;;
52730;SDS011;38624;53.242;6.974;2023-06-14T19:58:29;5.40;;;2.22;;
52730;SDS011;38624;53.242;6.974;2023-06-14T20:00:55;5.17;;;2.70;;
52730;SDS011;38624;53.242;6.974;2023-06-14T20:03:20;4.70;;;2.33;;
52730;SDS011;38624;53.242;6.974;2023-06-14T20:05:46;4.73;;;2.27;;
52730;SDS011;38624;53.242;6.974;2023-06-14T20:08:14;8.45;;;2.22;;
52730;SDS011;38624;53.242;6.974;2023-06-14T20:10:46;5.47;;;2.75;;
52730;SDS011;38624;53.242;6.974;2023-06-14T20:13:11;5.57;;;2.85;;
52730;SDS011;38624;53.242;6.974;2023-06-14T20:15:37;6.27;;;2.43;;
52730;SDS011;38624;53.242;6.974;2023-06-14T20:18:03;4.50;;;2.60;;
52730;SDS011;38624;53.242;6.974;2023-06-14T20:20:28;5.40;;;2.40;;
52730;SDS011;38624;53.242;6.974;2023-06-14T20:22:54;3.53;;;2.23;;
52730;SDS011;38624;53.242;6.974;2023-06-14T20:25:20;4.57;;;2.33;;
52730;SDS011;38624;53.242;6.974;2023-06-14T20:27:45;6.10;;;2.37;;
52730;SDS011;38624;53.242;6.974;2023-06-14T20:30:13;9.65;;;2.35;;
52730;SDS011;38624;53.242;6.974;2023-06-14T20:32:38;7.07;;;2.50;;
52730;SDS011;38624;53.242;6.974;2023-06-14T20:35:04;6.13;;;2.90;;
52730;SDS011;38624;53.242;6.974;2023-06-14T20:37:30;8.90;;;2.70;;
52730;SDS011;38624;53.242;6.974;2023-06-14T20:39:56;5.47;;;2.33;;
52730;SDS011;38624;53.242;6.974;2023-06-14T20:42:27;4.90;;;2.35;;
52730;SDS011;38624;53.242;6.974;2023-06-14T20:44:54;4.63;;;2.50;;
52730;SDS011;38624;53.242;6.974;2023-06-14T20:47:20;5.45;;;2.30;;
52730;SDS011;38624;53.242;6.974;2023-06-14T20:49:46;4.40;;;2.20;;
52730;SDS011;38624;53.242;6.974;2023-06-14T20:52:12;7.27;;;2.33;;
52730;SDS011;38624;53.242;6.974;2023-06-14T20:54:38;4.63;;;2.50;;
52730;SDS011;38624;53.242;6.974;2023-06-14T20:57:07;5.78;;;2.60;;
52730;SDS011;38624;53.242;6.974;2023-06-14T20:59:37;4.65;;;2.55;;
52730;SDS011;38624;53.242;6.974;2023-06-14T21:02:05;7.07;;;2.20;;
52730;SDS011;38624;53.242;6.974;2023-06-14T21:04:36;5.10;;;2.40;;
52730;SDS011;38624;53.242;6.974;2023-06-14T21:09:28;7.22;;;2.47;;
52730;SDS011;38624;53.242;6.974;2023-06-14T21:11:54;7.23;;;2.37;;
52730;SDS011;38624;53.242;6.974;2023-06-14T21:14:20;6.37;;;2.50;;
52730;SDS011;38624;53.242;6.974;2023-06-14T21:16:45;6.93;;;2.30;;
52730;SDS011;38624;53.242;6.974;2023-06-14T21:19:11;5.67;;;2.37;;
52730;SDS011;38624;53.242;6.974;2023-06-14T21:21:37;4.27;;;2.07;;
52730;SDS011;38624;53.242;6.974;2023-06-14T21:24:02;3.07;;;2.20;;
52730;SDS011;38624;53.242;6.974;2023-06-14T21:26:28;5.93;;;2.47;;
52730;SDS011;38624;53.242;6.974;2023-06-14T21:28:54;6.30;;;2.40;;
52730;SDS011;38624;53.242;6.974;2023-06-14T21:31:19;4.37;;;2.37;;
52730;SDS011;38624;53.242;6.974;2023-06-14T21:33:45;9.27;;;2.37;;
52730;SDS011;38624;53.242;6.974;2023-06-14T21:36:11;4.60;;;2.30;;
52730;SDS011;38624;53.242;6.974;2023-06-14T21:38:36;3.97;;;2.20;;
52730;SDS011;38624;53.242;6.974;2023-06-14T21:41:02;4.57;;;2.43;;
52730;SDS011;38624;53.242;6.974;2023-06-14T21:43:28;4.70;;;2.30;;
52730;SDS011;38624;53.242;6.974;2023-06-14T21:45:54;4.15;;;2.20;;
52730;SDS011;38624;53.242;6.974;2023-06-14T21:48:20;9.33;;;2.60;;
52730;SDS011;38624;53.242;6.974;2023-06-14T21:50:46;6.13;;;2.50;;
52730;SDS011;38624;53.242;6.974;2023-06-14T21:53:11;4.57;;;2.50;;
52730;SDS011;38624;53.242;6.974;2023-06-14T21:55:39;5.43;;;2.30;;
52730;SDS011;38624;53.242;6.974;2023-06-14T21:58:05;6.72;;;2.20;;
52730;SDS011;38624;53.242;6.974;2023-06-14T22:00:30;4.70;;;2.50;;
52730;SDS011;38624;53.242;6.974;2023-06-14T22:02:56;7.13;;;2.30;;
52730;SDS011;38624;53.242;6.974;2023-06-14T22:05:22;5.93;;;2.30;;
52730;SDS011;38624;53.242;6.974;2023-06-14T22:07:48;4.77;;;2.23;;
52730;SDS011;38624;53.242;6.974;2023-06-14T22:10:14;9.02;;;2.67;;
52730;SDS011;38624;53.242;6.974;2023-06-14T22:12:43;4.22;;;2.30;;
52730;SDS011;38624;53.242;6.974;2023-06-14T22:15:09;5.35;;;2.28;;
52730;SDS011;38624;53.242;6.974;2023-06-14T22:17:36;5.82;;;2.58;;
52730;SDS011;38624;53.242;6.974;2023-06-14T22:20:02;5.85;;;2.50;;
52730;SDS011;38624;53.242;6.974;2023-06-14T22:22:32;10.27;;;3.55;;
52730;SDS011;38624;53.242;6.974;2023-06-14T22:25:03;5.18;;;2.30;;
52730;SDS011;38624;53.242;6.974;2023-06-14T22:27:29;5.65;;;2.70;;
52730;SDS011;38624;53.242;6.974;2023-06-14T22:29:55;7.50;;;2.63;;
52730;SDS011;38624;53.242;6.974;2023-06-14T22:32:24;7.80;;;2.63;;
52730;SDS011;38624;53.242;6.974;2023-06-14T22:34:52;6.20;;;2.35;;
52730;SDS011;38624;53.242;6.974;2023-06-14T22:37:21;6.00;;;2.60;;
52730;SDS011;38624;53.242;6.974;2023-06-14T22:39:48;5.10;;;2.70;;
52730;SDS011;38624;53.242;6.974;2023-06-14T22:42:15;5.03;;;2.50;;
52730;SDS011;38624;53.242;6.974;2023-06-14T22:44:43;4.70;;;2.65;;
52730;SDS011;38624;53.242;6.974;2023-06-14T22:47:16;5.90;;;2.65;;
52730;SDS011;38624;53.242;6.974;2023-06-14T22:49:48;6.35;;;2.65;;
52730;SDS011;38624;53.242;6.974;2023-06-14T22:52:19;5.30;;;2.78;;
52730;SDS011;38624;53.242;6.974;2023-06-14T22:54:51;7.53;;;2.80;;
52730;SDS011;38624;53.242;6.974;2023-06-14T22:57:21;6.60;;;2.72;;
52730;SDS011;38624;53.242;6.974;2023-06-14T22:59:51;8.20;;;2.95;;
52730;SDS011;38624;53.242;6.974;2023-06-14T23:02:20;5.45;;;2.45;;
52730;SDS011;38624;53.242;6.974;2023-06-14T23:04:47;6.38;;;2.40;;
52730;SDS011;38624;53.242;6.974;2023-06-14T23:07:13;8.10;;;2.63;;
52730;SDS011;38624;53.242;6.974;2023-06-14T23:09:40;6.03;;;2.78;;
52730;SDS011;38624;53.242;6.974;2023-06-14T23:12:07;5.47;;;3.28;;
52730;SDS011;38624;53.242;6.974;2023-06-14T23:14:36;8.15;;;2.83;;
52730;SDS011;38624;53.242;6.974;2023-06-14T23:17:05;6.82;;;2.90;;
52730;SDS011;38624;53.242;6.974;2023-06-14T23:19:33;7.03;;;2.88;;
52730;SDS011;38624;53.242;6.974;2023-06-14T23:22:01;6.13;;;3.08;;
52730;SDS011;38624;53.242;6.974;2023-06-14T23:24:30;8.50;;;3.00;;
52730;SDS011;38624;53.242;6.974;2023-06-14T23:27:00;7.90;;;3.10;;
52730;SDS011;38624;53.242;6.974;2023-06-14T23:29:26;6.15;;;3.15;;
52730;SDS011;38624;53.242;6.974;2023-06-14T23:32:02;5.65;;;3.03;;
52730;SDS011;38624;53.242;6.974;2023-06-14T23:34:30;5.10;;;2.90;;
52730;SDS011;38624;53.242;6.974;2023-06-14T23:36:58;8.77;;;3.13;;
52730;SDS011;38624;53.242;6.974;2023-06-14T23:39:26;5.78;;;3.00;;
52730;SDS011;38624;53.242;6.974;2023-06-14T23:41:52;9.52;;;2.95;;
52730;SDS011;38624;53.242;6.974;2023-06-14T23:44:19;8.18;;;3.33;;
52730;SDS011;38624;53.242;6.974;2023-06-14T23:46:49;5.50;;;3.13;;
52730;SDS011;38624;53.242;6.974;2023-06-14T23:49:22;6.88;;;3.10;;
52730;SDS011;38624;53.242;6.974;2023-06-14T23:51:48;6.43;;;3.08;;
52730;SDS011;38624;53.242;6.974;2023-06-14T23:54:16;6.80;;;3.13;;
52730;SDS011;38624;53.242;6.974;2023-06-14T23:56:43;6.28;;;3.08;;
52730;SDS011;38624;53.242;6.974;2023-06-14T23:59:13;6.28;;;3.30;;
